Time;durP1;ratioP1;P1;durP2;ratioP2;P2;SDS_P1;SDS_P2;PMS_P1;PMS_P2;Temp;Humidity;BMP_temperature;BMP_pressure;BME280_temperature;BME280_humidity;BME280_pressure;Samples;Min_cycle;Max_cycle;Signal;HPM_P1;HPM_P2
2023/05/29 00:01:57;;;;;;;14.90;5.53;;;;;;;13.95;75.15;97347.41;6152871;23;20395;-75
2023/05/29 00:04:23;;;;;;;13.23;6.00;;;;;;;14.02;74.86;97350.56;6152773;23;20378;-76
2023/05/29 00:06:50;;;;;;;10.55;4.97;;;;;;;14.08;74.24;97346.78;6152989;23;20368;-76
2023/05/29 00:09:16;;;;;;;15.70;5.70;;;;;;;14.01;75.49;97358.81;6152915;23;20375;-76
2023/05/29 00:11:46;;;;;;;13.33;5.73;;;;;;;13.91;76.53;97352.44;6152809;23;20393;-76
2023/05/29 00:14:13;;;;;;;11.65;4.82;;;;;;;13.91;75.66;97355.13;6153010;23;20673;-76
2023/05/29 00:16:39;;;;;;;11.80;6.00;;;;;;;13.74;76.13;97354.66;6152839;23;20386;-76
2023/05/29 00:19:06;;;;;;;14.50;5.53;;;;;;;13.80;76.07;97352.78;6153056;23;20657;-75
2023/05/29 00:21:32;;;;;;;10.05;5.55;;;;;;;13.74;76.82;97349.34;6152692;23;20378;-76
2023/05/29 00:23:58;;;;;;;12.60;5.40;;;;;;;13.74;77.12;97353.88;6152461;23;20378;-76
2023/05/29 00:26:25;;;;;;;11.98;5.20;;;;;;;13.67;77.49;97351.50;6152775;23;20446;-75
2023/05/29 00:28:52;;;;;;;13.38;5.50;;;;;;;13.84;76.89;97343.19;6152821;23;20475;-76
2023/05/29 00:31:18;;;;;;;8.85;5.22;;;;;;;13.85;76.64;97342.09;6152766;23;20819;-76
2023/05/29 00:33:45;;;;;;;11.35;5.50;;;;;;;13.85;76.76;97342.91;6152320;23;20371;-76
2023/05/29 00:36:11;;;;;;;13.82;5.65;;;;;;;13.61;77.16;97336.59;6152929;23;20390;-76
2023/05/29 00:38:37;;;;;;;12.88;5.03;;;;;;;13.64;78.35;97330.75;6152714;23;20879;-76
2023/05/29 00:41:03;;;;;;;10.13;4.95;;;;;;;13.68;77.73;97339.78;6152753;23;20422;-76
2023/05/29 00:43:30;;;;;;;14.43;5.80;;;;;;;13.56;78.25;97340.09;6152441;23;20371;-75
2023/05/29 00:45:58;;;;;;;12.98;5.50;;;;;;;13.53;78.05;97332.66;6152703;23;20454;-75
2023/05/29 00:48:25;;;;;;;10.95;5.18;;;;;;;13.52;78.30;97324.97;6152768;23;20685;-76
2023/05/29 00:50:51;;;;;;;11.45;5.18;;;;;;;13.60;76.98;97328.94;6152795;23;20685;-75
2023/05/29 00:53:18;;;;;;;12.18;5.30;;;;;;;13.49;78.60;97330.81;6152005;23;20371;-75
2023/05/29 00:55:44;;;;;;;11.90;5.40;;;;;;;13.50;78.77;97335.06;6152984;23;20371;-75
2023/05/29 00:58:11;;;;;;;13.25;5.50;;;;;;;13.53;77.83;97324.66;6153121;23;20526;-75
2023/05/29 01:00:38;;;;;;;10.40;5.00;;;;;;;13.59;78.20;97327.31;6153059;23;20657;-76
2023/05/29 01:03:07;;;;;;;14.90;5.57;;;;;;;13.50;78.26;97322.56;6153508;23;20367;-76
2023/05/29 01:05:35;;;;;;;13.55;5.28;;;;;;;13.49;79.29;97334.25;6154735;23;20371;-76
2023/05/29 01:08:02;;;;;;;10.90;5.03;;;;;;;13.38;79.02;97327.38;6155114;23;20812;-75
2023/05/29 01:10:29;;;;;;;12.38;5.18;;;;;;;13.33;79.69;97324.72;6155182;23;20374;-75
2023/05/29 01:13:09;;;;;;;17.65;6.43;;;;;;;13.36;80.05;97328.72;6154927;23;20807;-75
2023/05/29 01:15:43;;;;;;;12.68;5.22;;;;;;;13.26;80.60;97326.06;6128465;23;20379;-76
2023/05/29 01:18:27;;;;;;;11.37;5.07;;;;;;;13.35;80.45;97332.44;6155074;23;20498;-75
2023/05/29 01:21:01;;;;;;;10.82;5.10;;;;;;;13.37;79.45;97327.66;6154962;23;20365;-75
2023/05/29 01:23:51;;;;;;;9.50;5.60;;;;;;;13.32;80.23;97325.78;6154631;23;20366;-75
2023/05/29 01:26:50;;;;;;;16.10;5.97;;;;;;;13.23;80.49;97327.41;6154591;23;20739;-76
2023/05/29 01:29:21;;;;;;;12.55;5.38;;;;;;;13.23;80.59;97318.66;6101731;23;20913;-76
2023/05/29 01:31:49;;;;;;;12.18;5.30;;;;;;;13.16;81.19;97321.56;6154768;23;20401;-75
2023/05/29 01:34:15;;;;;;;9.75;4.93;;;;;;;13.11;81.71;97310.94;6154793;23;20374;-76
2023/05/29 01:36:41;;;;;;;11.00;5.70;;;;;;;13.04;81.49;97324.50;6154567;23;20692;-76
2023/05/29 01:39:09;;;;;;;10.90;5.07;;;;;;;12.93;83.14;97316.81;6154838;23;20403;-76
2023/05/29 01:41:36;;;;;;;10.38;4.93;;;;;;;12.93;83.44;97316.81;6154552;23;20455;-76
2023/05/29 01:44:04;;;;;;;13.02;5.60;;;;;;;12.88;83.91;97320.25;6154582;23;20822;-75
2023/05/29 01:46:32;;;;;;;10.63;4.88;;;;;;;12.91;83.12;97319.72;6154761;23;20441;-75
2023/05/29 01:48:58;;;;;;;13.68;5.38;;;;;;;12.79;85.08;97335.94;6128435;23;20475;-75
2023/05/29 01:51:24;;;;;;;12.32;5.40;;;;;;;12.75;85.82;97328.78;6154599;23;20417;-75
2023/05/29 01:53:51;;;;;;;11.10;5.30;;;;;;;12.78;86.26;97328.22;6154198;23;20819;-76
2023/05/29 01:56:19;;;;;;;11.63;5.25;;;;;;;12.87;84.46;97326.63;6153599;23;22438;-75
2023/05/29 01:58:47;;;;;;;10.82;4.95;;;;;;;12.83;83.95;97333.56;6154688;23;20367;-76
2023/05/29 02:01:13;;;;;;;11.63;5.43;;;;;;;12.74;84.15;97340.44;6154598;23;20422;-75
2023/05/29 02:03:40;;;;;;;15.02;5.38;;;;;;;12.74;85.10;97349.22;6154292;23;20367;-76
2023/05/29 02:06:07;;;;;;;12.03;5.47;;;;;;;12.85;83.72;97346.56;6154576;23;20360;-76
2023/05/29 02:08:33;;;;;;;10.98;5.05;;;;;;;12.60;85.62;97336.72;6154657;23;20397;-75
2023/05/29 02:10:59;;;;;;;11.60;5.38;;;;;;;12.48;87.90;97339.63;6154504;23;20371;-76
2023/05/29 02:13:25;;;;;;;14.95;5.30;;;;;;;12.44;87.06;97338.56;6127861;23;20870;-75
2023/05/29 02:15:51;;;;;;;14.07;5.45;;;;;;;12.44;88.14;97343.88;6154240;23;20375;-76
2023/05/29 02:18:18;;;;;;;10.67;5.50;;;;;;;12.54;88.15;97338.59;6154696;23;20363;-76
2023/05/29 02:20:46;;;;;;;11.05;5.07;;;;;;;12.38;89.17;97334.31;6154347;23;20375;-76
2023/05/29 02:23:13;;;;;;;11.55;5.38;;;;;;;12.38;89.49;97335.13;6154385;23;20763;-75
2023/05/29 02:25:40;;;;;;;14.50;5.20;;;;;;;12.36;89.56;97325.81;6154279;23;20378;-75
2023/05/29 02:28:06;;;;;;;10.18;5.00;;;;;;;12.31;89.92;97321.31;6154327;23;20688;-76
2023/05/29 02:30:33;;;;;;;10.20;5.20;;;;;;;12.31;89.57;97325.81;6154345;23;20870;-75
2023/05/29 02:32:59;;;;;;;11.30;4.90;;;;;;;12.20;90.39;97322.34;6154172;23;20446;-75
2023/05/29 02:35:25;;;;;;;10.50;4.73;;;;;;;12.16;90.35;97331.09;6154073;23;20454;-76
2023/05/29 02:37:53;;;;;;;10.90;5.20;;;;;;;12.22;90.94;97330.03;6154164;23;20900;-76
2023/05/29 02:40:20;;;;;;;9.80;4.82;;;;;;;12.09;92.44;97327.91;6154373;23;20463;-75
2023/05/29 02:42:46;;;;;;;10.52;5.30;;;;;;;12.12;92.89;97330.81;6154045;23;20846;-75
2023/05/29 02:45:12;;;;;;;12.18;5.70;;;;;;;12.30;92.42;97329.53;6153972;23;20450;-75
2023/05/29 02:47:39;;;;;;;10.15;5.15;;;;;;;12.26;92.01;97323.13;6154309;23;20368;-75
2023/05/29 02:50:06;;;;;;;12.13;5.10;;;;;;;12.15;93.39;97326.84;6154168;23;20454;-75
2023/05/29 02:52:32;;;;;;;11.98;5.45;;;;;;;12.03;94.52;97324.41;6154331;23;20462;-76
2023/05/29 02:55:00;;;;;;;14.15;5.55;;;;;;;11.97;95.46;97314.84;6153711;23;20375;-75
2023/05/29 02:57:26;;;;;;;13.80;5.78;;;;;;;11.89;97.56;97321.47;6153979;23;20390;-76
2023/05/29 02:59:53;;;;;;;12.45;5.18;;;;;;;11.91;96.61;97319.34;6154018;23;20430;-75
2023/05/29 03:02:19;;;;;;;13.95;5.57;;;;;;;11.94;96.78;97315.38;6127679;23;20375;-75
2023/05/29 03:04:45;;;;;;;12.55;5.32;;;;;;;11.89;98.47;97310.06;6153909;23;20374;-75
2023/05/29 03:07:12;;;;;;;9.70;4.70;;;;;;;11.82;97.64;97318.25;6154057;23;20679;-75
2023/05/29 03:09:38;;;;;;;11.23;5.18;;;;;;;11.69;100.00;97310.75;6154004;23;20378;-76
2023/05/29 03:12:07;;;;;;;11.43;5.10;;;;;;;11.72;100.00;97320.06;6153951;23;20422;-75
2023/05/29 03:14:35;;;;;;;10.30;5.70;;;;;;;11.80;100.00;97314.28;6153903;23;20768;-75
2023/05/29 03:17:03;;;;;;;11.80;5.05;;;;;;;11.75;100.00;97320.34;6153870;23;20383;-75
2023/05/29 03:19:29;;;;;;;9.18;5.15;;;;;;;11.62;100.00;97315.50;6154093;23;20367;-75
2023/05/29 03:21:56;;;;;;;12.00;5.70;;;;;;;11.53;100.00;97314.41;6153952;23;20371;-77
2023/05/29 03:24:23;;;;;;;12.43;5.22;;;;;;;11.55;100.00;97312.28;6153730;23;20691;-76
2023/05/29 03:26:49;;;;;;;10.43;5.15;;;;;;;11.63;100.00;97315.25;6153462;23;20395;-76
2023/05/29 03:29:17;;;;;;;13.10;5.03;;;;;;;11.55;100.00;97321.03;6153473;23;20371;-78
2023/05/29 03:31:43;;;;;;;15.85;5.10;;;;;;;11.65;100.00;97317.66;6153813;23;20371;-78
2023/05/29 03:34:10;;;;;;;11.10;5.40;;;;;;;11.71;100.00;97321.91;6153870;23;20371;-78
2023/05/29 03:36:36;;;;;;;9.82;4.88;;;;;;;11.69;100.00;97318.72;6154587;23;20390;-78
2023/05/29 03:39:02;;;;;;;8.65;5.03;;;;;;;11.63;100.00;97323.22;6128138;23;20711;-78
2023/05/29 03:41:28;;;;;;;11.55;5.07;;;;;;;11.73;100.00;97319.00;6154307;23;20383;-78
2023/05/29 03:43:55;;;;;;;12.35;4.93;;;;;;;11.73;100.00;97311.81;6153854;23;20371;-78
2023/05/29 03:46:22;;;;;;;14.90;5.50;;;;;;;11.63;100.00;97317.91;6153770;23;20367;-78
2023/05/29 03:48:48;;;;;;;8.67;4.90;;;;;;;11.53;100.00;97319.69;6153659;23;20421;-77
2023/05/29 03:51:15;;;;;;;12.25;4.90;;;;;;;11.53;100.00;97315.19;6153138;23;20367;-77
2023/05/29 03:53:41;;;;;;;11.75;5.25;;;;;;;11.54;100.00;97321.28;6152477;23;20385;-77
2023/05/29 03:56:07;;;;;;;12.57;5.10;;;;;;;11.48;100.00;97320.47;6152899;23;20378;-77
2023/05/29 03:58:33;;;;;;;13.57;5.03;;;;;;;11.54;100.00;97330.06;6153096;23;20413;-77
2023/05/29 04:01:00;;;;;;;10.38;4.82;;;;;;;11.42;100.00;97324.16;6153169;23;20398;-77
2023/05/29 04:03:29;;;;;;;12.48;5.68;;;;;;;11.48;100.00;97332.94;6152443;23;20377;-77
2023/05/29 04:05:55;;;;;;;10.07;5.20;;;;;;;11.50;100.00;97338.78;6126590;23;20375;-77
2023/05/29 04:08:21;;;;;;;10.70;5.10;;;;;;;11.54;100.00;97345.97;6152742;23;20363;-77
2023/05/29 04:10:48;;;;;;;10.40;5.07;;;;;;;11.63;100.00;97343.63;6153001;23;20363;-77
2023/05/29 04:13:14;;;;;;;10.43;5.60;;;;;;;11.67;100.00;97352.63;6152951;23;20457;-77
2023/05/29 04:15:41;;;;;;;11.70;5.78;;;;;;;11.70;100.00;97348.69;6152635;23;20898;-78
2023/05/29 04:18:08;;;;;;;10.82;4.90;;;;;;;11.73;100.00;97356.91;6153043;23;21000;-77
2023/05/29 04:20:35;;;;;;;9.48;5.00;;;;;;;11.78;100.00;97350.88;6152944;23;20367;-77
2023/05/29 04:23:01;;;;;;;13.23;5.20;;;;;;;11.86;100.00;97351.16;6153208;23;20457;-78
2023/05/29 04:25:28;;;;;;;8.57;4.53;;;;;;;11.95;100.00;97354.91;6154116;23;20410;-78
2023/05/29 04:27:54;;;;;;;14.18;5.30;;;;;;;11.99;100.00;97361.28;6152547;23;20373;-76
2023/05/29 04:30:20;;;;;;;10.73;5.38;;;;;;;11.96;100.00;97367.09;6153065;23;20378;-77
2023/05/29 04:32:46;;;;;;;10.65;5.75;;;;;;;11.94;100.00;97373.75;6126473;23;20383;-77
2023/05/29 04:35:13;;;;;;;10.95;5.60;;;;;;;11.96;100.00;97372.41;6152797;23;20871;-77
2023/05/29 04:37:40;;;;;;;11.23;5.33;;;;;;;12.04;100.00;97371.09;6153110;23;20438;-77
2023/05/29 04:40:09;;;;;;;12.80;5.33;;;;;;;12.17;100.00;97378.59;6153054;23;20375;-77
2023/05/29 04:42:35;;;;;;;10.25;5.78;;;;;;;12.26;100.00;97379.66;6152761;23;20820;-77
2023/05/29 04:45:02;;;;;;;10.48;5.35;;;;;;;12.44;100.00;97380.25;6153492;23;20374;-77
2023/05/29 04:47:28;;;;;;;12.07;5.70;;;;;;;12.57;100.00;97380.53;6152784;23;20942;-77
2023/05/29 04:49:54;;;;;;;13.32;5.30;;;;;;;12.66;100.00;97383.47;6152552;23;20371;-77
2023/05/29 04:52:23;;;;;;;10.63;5.20;;;;;;;12.69;100.00;97386.41;6152595;23;20367;-77
2023/05/29 04:54:52;;;;;;;9.98;5.05;;;;;;;12.77;100.00;97390.41;6152269;23;20782;-78
2023/05/29 04:57:18;;;;;;;8.20;4.97;;;;;;;12.89;100.00;97382.94;6152577;23;20383;-77
2023/05/29 04:59:44;;;;;;;12.80;5.30;;;;;;;13.00;100.00;97389.88;6152836;23;20395;-77
2023/05/29 05:02:10;;;;;;;14.82;5.28;;;;;;;13.09;100.00;97388.25;6152872;23;20429;-77
2023/05/29 05:04:36;;;;;;;11.70;5.10;;;;;;;13.22;100.00;97388.84;6152703;23;20367;-77
2023/05/29 05:07:04;;;;;;;11.13;5.40;;;;;;;13.36;100.00;97389.88;6152856;23;20371;-77
2023/05/29 05:09:30;;;;;;;11.88;5.10;;;;;;;13.47;100.00;97392.22;6152916;23;20692;-77
2023/05/29 05:11:58;;;;;;;8.30;5.07;;;;;;;13.60;100.00;97400.75;6152592;23;20378;-77
2023/05/29 05:14:24;;;;;;;12.20;5.30;;;;;;;13.73;100.00;97394.84;6152602;23;20458;-77
2023/05/29 05:16:50;;;;;;;9.75;5.22;;;;;;;13.84;100.00;97391.06;6155250;23;20386;-79
2023/05/29 05:19:17;;;;;;;9.70;4.82;;;;;;;13.92;100.00;97393.97;6160367;23;20394;-79
2023/05/29 05:21:43;;;;;;;10.43;5.15;;;;;;;14.06;100.00;97388.09;6158545;23;20394;-78
2023/05/29 05:24:09;;;;;;;10.77;5.10;;;;;;;14.16;100.00;97391.47;6158760;23;20397;-79
2023/05/29 05:26:35;;;;;;;10.85;5.40;;;;;;;14.27;100.00;97392.25;6156513;23;20719;-78
2023/05/29 05:29:03;;;;;;;11.05;5.65;;;;;;;14.37;100.00;97400.16;6153210;23;20371;-78
2023/05/29 05:31:29;;;;;;;13.15;5.22;;;;;;;14.45;100.00;97394.28;6152773;23;20371;-77
2023/05/29 05:33:55;;;;;;;11.10;5.68;;;;;;;14.53;100.00;97396.38;6152839;23;20378;-78
2023/05/29 05:36:23;;;;;;;13.70;5.30;;;;;;;14.61;100.00;97402.97;6152814;23;20894;-78
2023/05/29 05:38:49;;;;;;;13.27;5.32;;;;;;;14.66;100.00;97401.06;6128070;23;20717;-78
2023/05/29 05:41:15;;;;;;;9.82;5.03;;;;;;;14.72;100.00;97396.53;6155553;23;20383;-79
2023/05/29 05:43:41;;;;;;;12.63;5.25;;;;;;;14.80;100.00;97406.59;6154459;23;20378;-78
2023/05/29 05:46:09;;;;;;;11.57;5.53;;;;;;;14.87;99.11;97408.94;6130816;23;20378;-79
2023/05/29 05:48:35;;;;;;;14.27;5.25;;;;;;;14.90;95.09;97400.38;6157366;23;20435;-78
2023/05/29 05:51:01;;;;;;;9.35;5.35;;;;;;;14.97;94.21;97408.84;6164844;23;20371;-79
2023/05/29 05:53:27;;;;;;;10.88;4.72;;;;;;;15.01;93.06;97405.38;6160437;23;20863;-77
2023/05/29 05:55:54;;;;;;;12.38;4.95;;;;;;;15.05;91.93;97419.72;6158754;23;20378;-78
2023/05/29 05:58:20;;;;;;;11.27;4.85;;;;;;;15.09;90.88;97417.31;6157941;23;20390;-78
2023/05/29 06:00:47;;;;;;;10.60;4.80;;;;;;;15.14;89.28;97419.13;6158293;23;20652;-77
2023/05/29 06:03:15;;;;;;;13.63;5.75;;;;;;;15.18;89.09;97425.50;6156636;23;20454;-78
2023/05/29 06:05:41;;;;;;;13.25;5.30;;;;;;;15.21;87.39;97424.94;6156511;23;20371;-78
2023/05/29 06:08:08;;;;;;;10.85;5.00;;;;;;;15.28;87.63;97434.22;6157959;23;20359;-77
2023/05/29 06:10:34;;;;;;;11.50;5.28;;;;;;;15.34;87.45;97435.75;6155084;23;20426;-78
2023/05/29 06:13:01;;;;;;;9.23;4.90;;;;;;;15.40;86.81;97437.31;6159140;23;20374;-78
2023/05/29 06:15:27;;;;;;;14.93;5.63;;;;;;;15.45;85.61;97442.59;6156539;23;20454;-78
2023/05/29 06:17:55;;;;;;;13.10;5.07;;;;;;;15.53;85.22;97449.22;6156810;23;20393;-77
2023/05/29 06:20:23;;;;;;;12.55;5.10;;;;;;;15.57;84.97;97444.91;6152690;23;20397;-77
2023/05/29 06:22:50;;;;;;;12.10;5.85;;;;;;;15.69;84.58;97449.88;6154609;23;20371;-77
2023/05/29 06:25:18;;;;;;;12.40;5.18;;;;;;;15.78;85.31;97442.88;6152792;23;20399;-78
2023/05/29 06:27:44;;;;;;;10.85;4.82;;;;;;;15.92;84.47;97440.31;6154576;23;20371;-78
2023/05/29 06:30:11;;;;;;;14.45;5.00;;;;;;;15.98;83.64;97442.63;6152767;23;20383;-78
2023/05/29 06:32:37;;;;;;;10.47;5.03;;;;;;;16.01;82.65;97454.63;6154009;23;20823;-78
2023/05/29 06:35:06;;;;;;;9.30;5.18;;;;;;;16.02;82.41;97454.31;6155446;23;20371;-79
2023/05/29 06:37:33;;;;;;;12.93;5.18;;;;;;;16.06;81.13;97457.25;6157547;23;20383;-81
2023/05/29 06:39:59;;;;;;;11.23;5.00;;;;;;;16.11;80.68;97459.84;6157821;23;20394;-81
2023/05/29 06:42:25;;;;;;;12.32;5.18;;;;;;;16.13;81.36;97460.38;6157565;23;20371;-80
2023/05/29 06:44:52;;;;;;;12.40;5.30;;;;;;;16.17;81.37;97464.84;6157983;23;20394;-81
2023/05/29 06:47:18;;;;;;;10.27;5.18;;;;;;;16.22;81.50;97458.66;6157915;23;20359;-80
2023/05/29 06:49:44;;;;;;;12.52;5.22;;;;;;;16.27;80.93;97463.94;6156765;23;20759;-77
2023/05/29 06:52:19;;;;;;;11.60;5.15;;;;;;;16.34;81.88;97463.59;6154412;23;20409;-77
2023/05/29 06:54:47;;;;;;;12.13;5.23;;;;;;;16.42;82.68;97462.94;6153688;23;20378;-78
2023/05/29 06:57:13;;;;;;;13.32;5.65;;;;;;;16.49;82.12;97472.22;6154186;23;20885;-78
2023/05/29 06:59:39;;;;;;;12.53;5.63;;;;;;;16.55;79.94;97476.41;6153600;23;20367;-78
2023/05/29 07:02:06;;;;;;;12.18;5.13;;;;;;;16.55;76.93;97478.28;6154368;23;20870;-78
2023/05/29 07:04:32;;;;;;;10.45;4.68;;;;;;;16.61;78.11;97485.19;6156914;23;20846;-81
2023/05/29 07:06:58;;;;;;;12.38;5.63;;;;;;;16.67;77.65;97488.59;6161842;23;20450;-82
2023/05/29 07:09:25;;;;;;;15.70;5.45;;;;;;;16.68;78.87;97487.53;6160635;23;20402;-83
2023/05/29 07:11:52;;;;;;;11.30;5.30;;;;;;;16.78;78.13;97485.50;6162017;23;20429;-81
2023/05/29 07:14:19;;;;;;;10.73;4.95;;;;;;;16.95;78.68;97493.00;6163976;23;20936;-81
2023/05/29 07:16:45;;;;;;;11.17;5.00;;;;;;;16.94;77.83;97491.41;6161727;23;20383;-81
2023/05/29 07:19:13;;;;;;;14.38;5.95;;;;;;;17.02;77.44;97496.13;6159909;23;20371;-79
2023/05/29 07:21:39;;;;;;;13.30;5.38;;;;;;;17.07;77.61;97495.25;6158349;23;20374;-78
2023/05/29 07:24:06;;;;;;;10.40;4.80;;;;;;;17.12;77.36;97485.28;6160875;23;20377;-79
2023/05/29 07:26:32;;;;;;;12.45;4.88;;;;;;;17.21;76.39;97488.91;6154129;23;20454;-77
2023/05/29 07:28:59;;;;;;;9.18;4.88;;;;;;;17.27;77.16;97489.59;6154668;23;20379;-78
2023/05/29 07:31:26;;;;;;;10.57;5.10;;;;;;;17.21;73.65;97491.56;6157443;23;20373;-78
2023/05/29 07:33:52;;;;;;;11.02;5.38;;;;;;;17.32;73.93;97495.66;6154770;23;20466;-77
2023/05/29 07:36:18;;;;;;;7.77;4.90;;;;;;;17.37;73.78;97500.94;6155723;23;20371;-78
2023/05/29 07:38:44;;;;;;;12.35;4.90;;;;;;;17.42;70.37;97494.72;6154204;23;20443;-77
2023/05/29 07:41:11;;;;;;;14.02;5.30;;;;;;;17.45;73.14;97494.13;6153374;23;20371;-76
2023/05/29 07:43:37;;;;;;;11.38;4.72;;;;;;;17.50;73.19;97498.63;6152977;23;20371;-76
2023/05/29 07:46:05;;;;;;;13.57;5.50;;;;;;;17.59;71.33;97492.28;6153247;23;20387;-76
2023/05/29 07:48:31;;;;;;;13.77;4.90;;;;;;;17.62;72.70;97496.28;6155475;23;20398;-78
2023/05/29 07:50:57;;;;;;;10.70;4.93;;;;;;;17.74;73.45;97499.31;6156876;23;20375;-78
2023/05/29 07:53:23;;;;;;;11.32;5.15;;;;;;;17.82;74.20;97495.16;6155785;23;20402;-78
2023/05/29 07:55:50;;;;;;;12.82;4.50;;;;;;;17.89;71.90;97501.72;6157981;23;20458;-79
2023/05/29 07:58:16;;;;;;;12.13;5.70;;;;;;;18.08;69.27;97491.72;6156829;23;20383;-80
2023/05/29 08:00:44;;;;;;;12.13;5.10;;;;;;;18.12;69.95;97491.91;6158390;23;20704;-78
2023/05/29 08:03:11;;;;;;;9.57;4.50;;;;;;;18.15;72.13;97496.69;6156456;23;20366;-79
2023/05/29 08:05:38;;;;;;;9.57;4.80;;;;;;;18.24;72.66;97491.44;6157229;23;20399;-78
2023/05/29 08:08:05;;;;;;;11.70;5.20;;;;;;;18.48;68.22;97492.81;6158929;23;20367;-78
2023/05/29 08:10:31;;;;;;;13.07;5.45;;;;;;;18.65;67.15;97494.91;6157536;23;20423;-78
2023/05/29 08:12:57;;;;;;;10.00;5.00;;;;;;;18.64;68.62;97498.72;6157907;23;20375;-78
2023/05/29 08:15:24;;;;;;;9.07;4.93;;;;;;;18.72;69.26;97491.84;6157408;23;20449;-78
2023/05/29 08:17:50;;;;;;;12.30;5.28;;;;;;;18.85;68.99;97491.81;6156539;23;20719;-77
2023/05/29 08:20:18;;;;;;;15.57;5.37;;;;;;;18.92;68.33;97488.72;6156033;23;20375;-78
2023/05/29 08:22:45;;;;;;;11.73;5.28;;;;;;;19.03;68.21;97492.75;6156499;23;20759;-78
2023/05/29 08:25:11;;;;;;;11.25;4.82;;;;;;;19.14;67.33;97493.31;6157436;23;20744;-78
2023/05/29 08:27:37;;;;;;;12.77;5.28;;;;;;;19.37;68.73;97496.81;6157529;23;20430;-77
2023/05/29 08:30:04;;;;;;;10.35;5.30;;;;;;;19.45;66.79;97496.88;6154274;23;20747;-78
2023/05/29 08:32:30;;;;;;;9.00;4.60;;;;;;;19.63;65.99;97493.22;6155575;23;20367;-78
2023/05/29 08:34:57;;;;;;;13.20;6.10;;;;;;;19.74;65.80;97493.78;6154823;23;20422;-78
2023/05/29 08:37:24;;;;;;;16.00;5.50;;;;;;;19.87;65.61;97495.59;6154735;23;20387;-78
2023/05/29 08:39:51;;;;;;;10.55;5.55;;;;;;;19.99;64.67;97487.75;6154510;23;20372;-78
2023/05/29 08:42:26;;;;;;;11.93;5.35;;;;;;;20.11;63.54;97495.22;6154554;23;20438;-77
2023/05/29 08:44:57;;;;;;;12.52;5.43;;;;;;;20.20;62.74;97493.38;6152385;23;20441;-77
2023/05/29 08:47:26;;;;;;;8.25;4.55;;;;;;;20.29;62.87;97494.22;6153033;23;20757;-77
2023/05/29 08:49:53;;;;;;;13.48;5.53;;;;;;;20.41;62.33;97494.44;6155119;23;20367;-78
2023/05/29 08:52:22;;;;;;;9.38;4.72;;;;;;;20.58;62.83;97500.97;6155249;23;20375;-78
2023/05/29 08:54:51;;;;;;;11.75;5.18;;;;;;;20.72;61.83;97499.72;6155606;23;20383;-78
2023/05/29 08:57:19;;;;;;;10.82;4.95;;;;;;;20.84;62.59;97493.72;6155956;23;20383;-78
2023/05/29 08:59:46;;;;;;;12.87;5.50;;;;;;;20.91;62.06;97498.63;6155533;23;20457;-77
2023/05/29 09:02:13;;;;;;;14.90;5.65;;;;;;;21.03;61.10;97496.13;6153096;23;20363;-76
2023/05/29 09:04:42;;;;;;;10.95;4.90;;;;;;;21.15;59.41;97501.66;6151361;23;20367;-77
2023/05/29 09:07:08;;;;;;;9.87;5.40;;;;;;;21.27;59.84;97501.09;6126229;23;20390;-76
2023/05/29 09:09:35;;;;;;;12.75;5.65;;;;;;;21.38;58.39;97505.81;6152912;23;20430;-76
2023/05/29 09:12:04;;;;;;;16.45;5.45;;;;;;;21.49;59.05;97499.00;6151803;23;20395;-78
2023/05/29 09:14:37;;;;;;;9.23;4.97;;;;;;;21.63;58.67;97507.72;6153571;23;20374;-78
2023/05/29 09:17:05;;;;;;;12.93;5.25;;;;;;;21.81;59.31;97507.66;6153560;23;20379;-76
2023/05/29 09:19:32;;;;;;;12.52;5.38;;;;;;;21.93;59.83;97500.50;6153446;23;20375;-77
2023/05/29 09:22:03;;;;;;;12.68;5.07;;;;;;;22.12;57.50;97497.47;6151746;23;20378;-77
2023/05/29 09:24:32;;;;;;;9.85;4.90;;;;;;;22.20;57.75;97501.22;6153156;23;20386;-77
2023/05/29 09:27:00;;;;;;;11.23;5.28;;;;;;;22.30;58.62;97517.06;6128913;23;20378;-82
2023/05/29 09:29:30;;;;;;;14.10;5.03;;;;;;;22.41;58.55;97512.88;6156051;23;20381;-81
2023/05/29 09:31:57;;;;;;;9.25;4.93;;;;;;;22.48;56.75;97510.47;6157228;23;20407;-78
2023/05/29 09:34:28;;;;;;;14.07;4.97;;;;;;;22.58;57.15;97507.41;6154722;23;20827;-78
2023/05/29 09:37:07;;;;;;;10.65;5.03;;;;;;;22.68;57.71;97503.56;6128747;23;20395;-79
2023/05/29 09:39:34;;;;;;;13.25;5.57;;;;;;;22.75;55.61;97499.25;6155883;23;20406;-77
2023/05/29 09:42:01;;;;;;;9.70;5.25;;;;;;;22.84;55.61;97499.22;6156262;23;20687;-78
2023/05/29 09:44:30;;;;;;;9.38;4.63;;;;;;;22.97;56.86;97505.47;6157341;23;20405;-78
2023/05/29 09:46:59;;;;;;;12.68;4.68;;;;;;;23.18;56.21;97506.25;6156131;23;20373;-77
2023/05/29 09:49:27;;;;;;;10.13;4.65;;;;;;;23.28;55.92;97513.97;6156167;23;20382;-76
2023/05/29 09:51:54;;;;;;;9.50;4.45;;;;;;;23.43;56.63;97510.66;6156770;23;20379;-77
2023/05/29 09:54:20;;;;;;;9.95;4.40;;;;;;;23.56;54.52;97513.44;6156509;23;20390;-78
2023/05/29 09:56:47;;;;;;;8.98;4.63;;;;;;;23.68;54.21;97506.16;6156932;23;20383;-77
2023/05/29 09:59:15;;;;;;;10.77;4.90;;;;;;;23.78;52.62;97500.34;6157065;23;20366;-76
2023/05/29 10:01:44;;;;;;;11.00;4.82;;;;;;;23.97;53.14;97499.84;6155581;23;20430;-79
2023/05/29 10:04:11;;;;;;;12.85;4.88;;;;;;;24.25;52.97;97500.81;6154120;23;20425;-79
2023/05/29 10:06:41;;;;;;;10.60;4.63;;;;;;;24.61;51.74;97499.22;6154697;23;20382;-81
2023/05/29 10:09:11;;;;;;;10.57;4.57;;;;;;;24.96;50.70;97497.63;6127959;23;20413;-80
2023/05/29 10:11:40;;;;;;;11.82;4.60;;;;;;;25.30;49.87;97487.41;6156574;23;20498;-79
2023/05/29 10:14:09;;;;;;;11.75;4.53;;;;;;;25.64;49.08;97486.81;6158195;23;20509;-80
2023/05/29 10:16:41;;;;;;;9.88;4.80;;;;;;;26.08;47.42;97484.09;6157060;23;20367;-79
2023/05/29 10:19:13;;;;;;;9.20;4.13;;;;;;;26.45;45.85;97485.44;6159135;23;20363;-77
2023/05/29 10:21:41;;;;;;;11.40;4.43;;;;;;;26.80;44.71;97481.97;6152588;23;20389;-77
2023/05/29 10:24:08;;;;;;;10.93;4.55;;;;;;;26.93;44.44;97480.72;6154754;23;20891;-78
2023/05/29 10:26:36;;;;;;;9.35;4.30;;;;;;;26.73;41.86;97473.66;6156289;23;20740;-78
2023/05/29 10:29:07;;;;;;;8.73;3.95;;;;;;;26.42;42.47;97480.72;6157125;23;20374;-79
2023/05/29 10:31:43;;;;;;;9.03;3.83;;;;;;;26.55;41.56;97474.03;6155837;23;20363;-80
2023/05/29 10:34:23;;;;;;;9.95;4.75;;;;;;;26.77;41.23;97469.06;6157299;23;20362;-81
2023/05/29 10:37:00;;;;;;;7.78;3.97;;;;;;;27.12;40.66;97475.31;6155400;23;20391;-81
2023/05/29 10:39:26;;;;;;;12.63;4.43;;;;;;;27.30;42.18;97473.75;6160371;23;20395;-80
2023/05/29 10:41:54;;;;;;;7.80;3.67;;;;;;;27.33;38.82;97464.09;6157780;23;20371;-81
2023/05/29 10:44:40;;;;;;;9.80;3.93;;;;;;;27.39;38.75;97459.16;6158205;23;20375;-82
2023/05/29 10:47:08;;;;;;;10.02;3.92;;;;;;;27.57;40.72;97468.47;6156352;23;20700;-81
2023/05/29 10:49:36;;;;;;;9.50;4.10;;;;;;;27.55;38.36;97470.75;6156428;23;20425;-81
2023/05/29 10:52:05;;;;;;;10.57;4.40;;;;;;;27.49;38.75;97462.09;6155980;23;20367;-80
2023/05/29 10:54:50;;;;;;;10.48;4.45;;;;;;;27.46;37.41;97468.22;6156704;23;20422;-81
2023/05/29 10:57:16;;;;;;;8.73;4.45;;;;;;;27.51;38.18;97476.13;6157687;23;20395;-81
2023/05/29 10:59:45;;;;;;;12.70;4.50;;;;;;;27.59;38.20;97468.91;6156759;23;20370;-79
2023/05/29 11:02:17;;;;;;;8.93;4.00;;;;;;;27.58;39.20;97465.41;6157331;23;20765;-80
2023/05/29 11:04:44;;;;;;;10.00;4.30;;;;;;;27.74;37.88;97449.75;6159154;23;20371;-84
2023/05/29 11:07:32;;;;;;;9.82;4.22;;;;;;;27.66;36.70;97456.22;6159244;23;20367;-80
2023/05/29 11:10:13;;;;;;;6.95;3.78;;;;;;;27.72;37.43;97454.00;6158521;23;20365;-79
2023/05/29 11:12:57;;;;;;;8.00;3.90;;;;;;;27.83;36.87;97463.13;6157956;23;20403;-79
2023/05/29 11:15:25;;;;;;;9.95;4.32;;;;;;;27.72;35.49;97459.44;6157344;23;20363;-78
2023/05/29 11:17:53;;;;;;;15.37;4.57;;;;;;;27.89;36.42;97466.34;6156803;23;20383;-80
2023/05/29 11:20:37;;;;;;;7.88;3.60;;;;;;;27.93;34.96;97456.31;6155493;23;20697;-77
2023/05/29 11:23:07;;;;;;;9.35;3.50;;;;;;;28.13;36.12;97468.69;6154568;23;20744;-81
2023/05/29 11:25:36;;;;;;;9.10;3.73;;;;;;;28.15;34.77;97455.53;6154886;23;20368;-79
2023/05/29 11:28:08;;;;;;;9.55;3.80;;;;;;;28.31;36.14;97458.13;6155556;23;20391;-81